sensor_id;sensor_type;location;lat;lon;timestamp;P1;durP1;ratioP1;P2;durP2;ratioP2
74335;SDS011;62755;-33.398;-70.572;2023-03-31T00:00:45;24.45;;;4.75;;
74335;SDS011;62755;-33.398;-70.572;2023-03-31T00:03:36;15.80;;;3.88;;
74335;SDS011;62755;-33.398;-70.572;2023-03-31T00:06:28;21.38;;;3.50;;
74335;SDS011;62755;-33.398;-70.572;2023-03-31T00:09:22;29.13;;;3.67;;
74335;SDS011;62755;-33.398;-70.572;2023-03-31T00:12:14;21.77;;;4.32;;
74335;SDS011;62755;-33.398;-70.572;2023-03-31T00:15:04;18.63;;;3.47;;
74335;SDS011;62755;-33.398;-70.572;2023-03-31T00:17:54;13.63;;;3.08;;
74335;SDS011;62755;-33.398;-70.572;2023-03-31T00:20:47;11.35;;;2.75;;
74335;SDS011;62755;-33.398;-70.572;2023-03-31T00:23:38;24.48;;;3.63;;
74335;SDS011;62755;-33.398;-70.572;2023-03-31T00:26:28;27.77;;;7.95;;
74335;SDS011;62755;-33.398;-70.572;2023-03-31T00:29:17;16.38;;;3.30;;
74335;SDS011;62755;-33.398;-70.572;2023-03-31T00:32:07;16.38;;;3.30;;
74335;SDS011;62755;-33.398;-70.572;2023-03-31T00:34:56;24.13;;;3.25;;
74335;SDS011;62755;-33.398;-70.572;2023-03-31T00:37:48;11.48;;;2.55;;
74335;SDS011;62755;-33.398;-70.572;2023-03-31T00:40:43;19.00;;;4.22;;
74335;SDS011;62755;-33.398;-70.572;2023-03-31T00:43:34;17.92;;;3.80;;
74335;SDS011;62755;-33.398;-70.572;2023-03-31T00:46:25;21.23;;;4.63;;
74335;SDS011;62755;-33.398;-70.572;2023-03-31T00:49:19;16.77;;;4.88;;
74335;SDS011;62755;-33.398;-70.572;2023-03-31T00:52:15;25.48;;;4.90;;
74335;SDS011;62755;-33.398;-70.572;2023-03-31T00:55:10;26.15;;;5.97;;
74335;SDS011;62755;-33.398;-70.572;2023-03-31T00:58:04;21.85;;;5.35;;
74335;SDS011;62755;-33.398;-70.572;2023-03-31T01:00:59;19.23;;;4.60;;
74335;SDS011;62755;-33.398;-70.572;2023-03-31T01:03:50;19.67;;;3.85;;
74335;SDS011;62755;-33.398;-70.572;2023-03-31T01:06:42;35.33;;;5.15;;
74335;SDS011;62755;-33.398;-70.572;2023-03-31T01:09:37;31.42;;;4.80;;
74335;SDS011;62755;-33.398;-70.572;2023-03-31T01:12:29;28.70;;;6.00;;
74335;SDS011;62755;-33.398;-70.572;2023-03-31T01:15:21;28.98;;;6.95;;
74335;SDS011;62755;-33.398;-70.572;2023-03-31T01:18:11;37.78;;;7.55;;
74335;SDS011;62755;-33.398;-70.572;2023-03-31T01:27:50;30.03;;;6.33;;
74335;SDS011;62755;-33.398;-70.572;2023-03-31T01:37:53;23.92;;;6.00;;
74335;SDS011;62755;-33.398;-70.572;2023-03-31T01:41:20;25.67;;;5.75;;
74335;SDS011;62755;-33.398;-70.572;2023-03-31T01:44:20;17.48;;;4.72;;
74335;SDS011;62755;-33.398;-70.572;2023-03-31T01:47:22;23.40;;;6.40;;
74335;SDS011;62755;-33.398;-70.572;2023-03-31T01:50:21;22.58;;;5.95;;
74335;SDS011;62755;-33.398;-70.572;2023-03-31T01:53:17;23.77;;;5.00;;
74335;SDS011;62755;-33.398;-70.572;2023-03-31T01:56:14;29.70;;;5.47;;
74335;SDS011;62755;-33.398;-70.572;2023-03-31T01:59:09;20.10;;;4.57;;
74335;SDS011;62755;-33.398;-70.572;2023-03-31T02:02:02;38.08;;;16.95;;
74335;SDS011;62755;-33.398;-70.572;2023-03-31T02:04:56;30.88;;;10.07;;
74335;SDS011;62755;-33.398;-70.572;2023-03-31T02:07:48;27.55;;;7.28;;
74335;SDS011;62755;-33.398;-70.572;2023-03-31T02:10:41;20.50;;;10.55;;
74335;SDS011;62755;-33.398;-70.572;2023-03-31T02:13:32;35.13;;;14.73;;
74335;SDS011;62755;-33.398;-70.572;2023-03-31T02:16:26;34.38;;;10.10;;
74335;SDS011;62755;-33.398;-70.572;2023-03-31T02:19:18;42.75;;;8.75;;
74335;SDS011;62755;-33.398;-70.572;2023-03-31T02:22:09;37.50;;;6.38;;
74335;SDS011;62755;-33.398;-70.572;2023-03-31T02:25:01;30.88;;;5.80;;
74335;SDS011;62755;-33.398;-70.572;2023-03-31T02:27:53;23.58;;;5.93;;
74335;SDS011;62755;-33.398;-70.572;2023-03-31T02:30:49;30.02;;;4.10;;
74335;SDS011;62755;-33.398;-70.572;2023-03-31T02:33:49;28.80;;;4.18;;
74335;SDS011;62755;-33.398;-70.572;2023-03-31T02:36:39;28.20;;;4.82;;
74335;SDS011;62755;-33.398;-70.572;2023-03-31T02:39:31;29.10;;;4.40;;
74335;SDS011;62755;-33.398;-70.572;2023-03-31T02:42:22;22.25;;;3.88;;
74335;SDS011;62755;-33.398;-70.572;2023-03-31T02:48:33;24.05;;;5.53;;
74335;SDS011;62755;-33.398;-70.572;2023-03-31T02:54:49;16.27;;;2.85;;
74335;SDS011;62755;-33.398;-70.572;2023-03-31T03:01:18;15.02;;;3.00;;
74335;SDS011;62755;-33.398;-70.572;2023-03-31T03:04:30;20.13;;;4.38;;
74335;SDS011;62755;-33.398;-70.572;2023-03-31T03:07:31;20.13;;;4.43;;
74335;SDS011;62755;-33.398;-70.572;2023-03-31T03:10:26;12.77;;;2.80;;
74335;SDS011;62755;-33.398;-70.572;2023-03-31T03:13:23;11.88;;;2.58;;
74335;SDS011;62755;-33.398;-70.572;2023-03-31T03:16:21;15.70;;;4.22;;
74335;SDS011;62755;-33.398;-70.572;2023-03-31T03:19:17;11.13;;;2.92;;
74335;SDS011;62755;-33.398;-70.572;2023-03-31T03:22:08;17.08;;;2.63;;
74335;SDS011;62755;-33.398;-70.572;2023-03-31T03:24:59;12.13;;;2.47;;
74335;SDS011;62755;-33.398;-70.572;2023-03-31T03:27:48;11.77;;;2.60;;
74335;SDS011;62755;-33.398;-70.572;2023-03-31T03:30:37;17.48;;;2.72;;
74335;SDS011;62755;-33.398;-70.572;2023-03-31T03:33:27;14.25;;;3.38;;
74335;SDS011;62755;-33.398;-70.572;2023-03-31T03:36:16;22.55;;;3.55;;
74335;SDS011;62755;-33.398;-70.572;2023-03-31T03:39:06;17.58;;;3.40;;
74335;SDS011;62755;-33.398;-70.572;2023-03-31T03:41:57;22.58;;;3.30;;
74335;SDS011;62755;-33.398;-70.572;2023-03-31T03:44:47;16.95;;;2.63;;
74335;SDS011;62755;-33.398;-70.572;2023-03-31T03:47:36;15.38;;;3.42;;
74335;SDS011;62755;-33.398;-70.572;2023-03-31T03:50:25;11.82;;;3.10;;
74335;SDS011;62755;-33.398;-70.572;2023-03-31T03:53:15;10.90;;;2.60;;
74335;SDS011;62755;-33.398;-70.572;2023-03-31T03:56:04;21.45;;;3.42;;
74335;SDS011;62755;-33.398;-70.572;2023-03-31T03:58:55;18.83;;;2.72;;
74335;SDS011;62755;-33.398;-70.572;2023-03-31T04:01:45;22.55;;;2.83;;
74335;SDS011;62755;-33.398;-70.572;2023-03-31T04:04:34;15.05;;;2.75;;
74335;SDS011;62755;-33.398;-70.572;2023-03-31T04:07:23;16.33;;;3.25;;
74335;SDS011;62755;-33.398;-70.572;2023-03-31T04:10:13;18.67;;;2.33;;
74335;SDS011;62755;-33.398;-70.572;2023-03-31T04:13:02;14.77;;;2.55;;
74335;SDS011;62755;-33.398;-70.572;2023-03-31T04:15:53;12.75;;;2.25;;
74335;SDS011;62755;-33.398;-70.572;2023-03-31T04:18:43;23.42;;;2.47;;
74335;SDS011;62755;-33.398;-70.572;2023-03-31T04:21:33;21.77;;;3.00;;
74335;SDS011;62755;-33.398;-70.572;2023-03-31T04:24:29;13.43;;;2.53;;
74335;SDS011;62755;-33.398;-70.572;2023-03-31T04:27:19;17.08;;;2.10;;
74335;SDS011;62755;-33.398;-70.572;2023-03-31T04:30:12;14.88;;;2.10;;
74335;SDS011;62755;-33.398;-70.572;2023-03-31T04:33:09;21.65;;;2.30;;
74335;SDS011;62755;-33.398;-70.572;2023-03-31T04:36:00;18.27;;;2.10;;
74335;SDS011;62755;-33.398;-70.572;2023-03-31T04:38:51;15.93;;;2.13;;
74335;SDS011;62755;-33.398;-70.572;2023-03-31T04:41:41;12.60;;;2.28;;
74335;SDS011;62755;-33.398;-70.572;2023-03-31T04:44:30;16.58;;;2.38;;
74335;SDS011;62755;-33.398;-70.572;2023-03-31T04:47:19;13.77;;;2.30;;
74335;SDS011;62755;-33.398;-70.572;2023-03-31T04:50:10;14.88;;;2.22;;
74335;SDS011;62755;-33.398;-70.572;2023-03-31T04:53:00;15.77;;;2.35;;
74335;SDS011;62755;-33.398;-70.572;2023-03-31T04:55:49;10.02;;;2.20;;
74335;SDS011;62755;-33.398;-70.572;2023-03-31T04:58:38;12.75;;;2.20;;
74335;SDS011;62755;-33.398;-70.572;2023-03-31T05:01:29;16.52;;;2.90;;
74335;SDS011;62755;-33.398;-70.572;2023-03-31T05:04:20;20.27;;;2.50;;
74335;SDS011;62755;-33.398;-70.572;2023-03-31T05:07:12;17.27;;;2.38;;
74335;SDS011;62755;-33.398;-70.572;2023-03-31T05:10:01;12.77;;;2.88;;
74335;SDS011;62755;-33.398;-70.572;2023-03-31T05:12:50;15.95;;;2.70;;
74335;SDS011;62755;-33.398;-70.572;2023-03-31T05:15:40;17.45;;;2.20;;
74335;SDS011;62755;-33.398;-70.572;2023-03-31T05:18:30;9.07;;;1.90;;
74335;SDS011;62755;-33.398;-70.572;2023-03-31T05:21:19;14.95;;;2.42;;
74335;SDS011;62755;-33.398;-70.572;2023-03-31T05:24:10;10.65;;;2.08;;
74335;SDS011;62755;-33.398;-70.572;2023-03-31T05:27:00;14.27;;;1.83;;
74335;SDS011;62755;-33.398;-70.572;2023-03-31T05:29:50;9.73;;;1.92;;
74335;SDS011;62755;-33.398;-70.572;2023-03-31T05:32:39;15.57;;;2.25;;
74335;SDS011;62755;-33.398;-70.572;2023-03-31T05:35:28;4.28;;;2.00;;
74335;SDS011;62755;-33.398;-70.572;2023-03-31T05:38:18;13.93;;;2.45;;
74335;SDS011;62755;-33.398;-70.572;2023-03-31T05:41:09;13.07;;;2.42;;
74335;SDS011;62755;-33.398;-70.572;2023-03-31T05:43:58;8.05;;;1.88;;
74335;SDS011;62755;-33.398;-70.572;2023-03-31T05:46:48;17.05;;;2.50;;
74335;SDS011;62755;-33.398;-70.572;2023-03-31T05:49:37;13.68;;;2.20;;
74335;SDS011;62755;-33.398;-70.572;2023-03-31T05:52:27;13.02;;;2.28;;
74335;SDS011;62755;-33.398;-70.572;2023-03-31T05:55:17;10.13;;;2.15;;
74335;SDS011;62755;-33.398;-70.572;2023-03-31T05:58:08;11.95;;;2.00;;
74335;SDS011;62755;-33.398;-70.572;2023-03-31T06:01:01;11.05;;;2.35;;
74335;SDS011;62755;-33.398;-70.572;2023-03-31T06:03:52;21.90;;;2.17;;
74335;SDS011;62755;-33.398;-70.572;2023-03-31T06:06:41;10.85;;;2.40;;
74335;SDS011;62755;-33.398;-70.572;2023-03-31T06:09:31;10.90;;;1.85;;
74335;SDS011;62755;-33.398;-70.572;2023-03-31T06:12:20;13.32;;;2.05;;
74335;SDS011;62755;-33.398;-70.572;2023-03-31T06:15:11;10.20;;;2.00;;
74335;SDS011;62755;-33.398;-70.572;2023-03-31T06:18:00;12.30;;;1.98;;
74335;SDS011;62755;-33.398;-70.572;2023-03-31T06:20:52;14.27;;;2.10;;
74335;SDS011;62755;-33.398;-70.572;2023-03-31T06:23:41;9.18;;;1.80;;
74335;SDS011;62755;-33.398;-70.572;2023-03-31T06:26:31;9.73;;;1.90;;
74335;SDS011;62755;-33.398;-70.572;2023-03-31T06:29:21;6.57;;;1.58;;
74335;SDS011;62755;-33.398;-70.572;2023-03-31T06:32:12;14.95;;;1.80;;
74335;SDS011;62755;-33.398;-70.572;2023-03-31T06:35:01;6.90;;;1.70;;
74335;SDS011;62755;-33.398;-70.572;2023-03-31T06:37:50;11.45;;;1.90;;
74335;SDS011;62755;-33.398;-70.572;2023-03-31T06:40:40;12.93;;;1.83;;
74335;SDS011;62755;-33.398;-70.572;2023-03-31T06:43:30;17.13;;;1.92;;
74335;SDS011;62755;-33.398;-70.572;2023-03-31T06:46:19;21.73;;;2.25;;
74335;SDS011;62755;-33.398;-70.572;2023-03-31T06:49:10;15.52;;;2.35;;
74335;SDS011;62755;-33.398;-70.572;2023-03-31T06:52:00;12.70;;;2.17;;
74335;SDS011;62755;-33.398;-70.572;2023-03-31T06:54:50;10.27;;;1.70;;
74335;SDS011;62755;-33.398;-70.572;2023-03-31T06:57:39;10.65;;;1.88;;
74335;SDS011;62755;-33.398;-70.572;2023-03-31T07:00:28;18.92;;;2.15;;
74335;SDS011;62755;-33.398;-70.572;2023-03-31T07:03:18;10.90;;;1.92;;
74335;SDS011;62755;-33.398;-70.572;2023-03-31T07:06:11;16.55;;;1.77;;
74335;SDS011;62755;-33.398;-70.572;2023-03-31T07:09:00;17.25;;;1.60;;
74335;SDS011;62755;-33.398;-70.572;2023-03-31T07:11:50;13.13;;;1.60;;
74335;SDS011;62755;-33.398;-70.572;2023-03-31T07:14:40;11.35;;;1.75;;
74335;SDS011;62755;-33.398;-70.572;2023-03-31T07:17:29;9.77;;;1.60;;
74335;SDS011;62755;-33.398;-70.572;2023-03-31T07:20:18;16.98;;;2.25;;
74335;SDS011;62755;-33.398;-70.572;2023-03-31T07:23:09;11.55;;;2.35;;
74335;SDS011;62755;-33.398;-70.572;2023-03-31T07:25:59;16.77;;;2.47;;
74335;SDS011;62755;-33.398;-70.572;2023-03-31T07:28:48;13.57;;;2.33;;
74335;SDS011;62755;-33.398;-70.572;2023-03-31T07:31:37;10.82;;;2.20;;
74335;SDS011;62755;-33.398;-70.572;2023-03-31T07:34:26;13.93;;;1.98;;
74335;SDS011;62755;-33.398;-70.572;2023-03-31T07:37:17;10.65;;;2.35;;
74335;SDS011;62755;-33.398;-70.572;2023-03-31T07:40:09;14.95;;;2.08;;
74335;SDS011;62755;-33.398;-70.572;2023-03-31T07:43:00;17.92;;;2.58;;
74335;SDS011;62755;-33.398;-70.572;2023-03-31T07:45:49;14.93;;;2.25;;
74335;SDS011;62755;-33.398;-70.572;2023-03-31T07:48:38;14.40;;;2.60;;
74335;SDS011;62755;-33.398;-70.572;2023-03-31T07:51:28;16.33;;;3.10;;
74335;SDS011;62755;-33.398;-70.572;2023-03-31T07:54:19;14.40;;;3.55;;
74335;SDS011;62755;-33.398;-70.572;2023-03-31T07:57:10;10.52;;;2.33;;
74335;SDS011;62755;-33.398;-70.572;2023-03-31T07:59:59;14.48;;;1.90;;
74335;SDS011;62755;-33.398;-70.572;2023-03-31T08:02:51;9.10;;;1.77;;
74335;SDS011;62755;-33.398;-70.572;2023-03-31T08:05:40;10.90;;;2.05;;
74335;SDS011;62755;-33.398;-70.572;2023-03-31T08:08:29;13.25;;;2.03;;
74335;SDS011;62755;-33.398;-70.572;2023-03-31T08:11:23;7.85;;;1.85;;
74335;SDS011;62755;-33.398;-70.572;2023-03-31T08:14:14;11.25;;;2.30;;
74335;SDS011;62755;-33.398;-70.572;2023-03-31T08:17:03;20.63;;;2.10;;
74335;SDS011;62755;-33.398;-70.572;2023-03-31T08:19:53;9.68;;;2.05;;
74335;SDS011;62755;-33.398;-70.572;2023-03-31T08:22:42;12.65;;;2.20;;
74335;SDS011;62755;-33.398;-70.572;2023-03-31T08:25:31;8.98;;;1.95;;
74335;SDS011;62755;-33.398;-70.572;2023-03-31T08:28:21;10.57;;;1.92;;
74335;SDS011;62755;-33.398;-70.572;2023-03-31T08:31:13;10.60;;;2.05;;
74335;SDS011;62755;-33.398;-70.572;2023-03-31T08:34:03;10.15;;;2.22;;
74335;SDS011;62755;-33.398;-70.572;2023-03-31T08:36:52;14.02;;;2.22;;
74335;SDS011;62755;-33.398;-70.572;2023-03-31T08:39:42;9.73;;;1.70;;
74335;SDS011;62755;-33.398;-70.572;2023-03-31T08:42:34;8.93;;;1.75;;
74335;SDS011;62755;-33.398;-70.572;2023-03-31T08:45:26;14.48;;;2.38;;
74335;SDS011;62755;-33.398;-70.572;2023-03-31T08:48:22;16.25;;;1.98;;
74335;SDS011;62755;-33.398;-70.572;2023-03-31T08:51:16;17.63;;;2.03;;
74335;SDS011;62755;-33.398;-70.572;2023-03-31T08:54:10;10.73;;;2.20;;
74335;SDS011;62755;-33.398;-70.572;2023-03-31T08:57:03;10.50;;;1.70;;
74335;SDS011;62755;-33.398;-70.572;2023-03-31T09:00:00;9.77;;;2.00;;
74335;SDS011;62755;-33.398;-70.572;2023-03-31T09:02:53;12.60;;;1.85;;
74335;SDS011;62755;-33.398;-70.572;2023-03-31T09:05:49;15.18;;;2.20;;
74335;SDS011;62755;-33.398;-70.572;2023-03-31T09:08:43;10.15;;;1.70;;
74335;SDS011;62755;-33.398;-70.572;2023-03-31T09:11:34;7.68;;;1.95;;
74335;SDS011;62755;-33.398;-70.572;2023-03-31T09:14:26;7.97;;;1.88;;
74335;SDS011;62755;-33.398;-70.572;2023-03-31T09:17:25;15.65;;;2.70;;
74335;SDS011;62755;-33.398;-70.572;2023-03-31T09:20:18;9.13;;;2.70;;
74335;SDS011;62755;-33.398;-70.572;2023-03-31T09:23:23;10.45;;;1.83;;
74335;SDS011;62755;-33.398;-70.572;2023-03-31T09:26:19;9.43;;;1.60;;
74335;SDS011;62755;-33.398;-70.572;2023-03-31T09:29:14;13.38;;;2.20;;
74335;SDS011;62755;-33.398;-70.572;2023-03-31T09:32:12;11.50;;;2.67;;
74335;SDS011;62755;-33.398;-70.572;2023-03-31T09:35:11;9.63;;;2.35;;
74335;SDS011;62755;-33.398;-70.572;2023-03-31T09:38:03;7.25;;;1.80;;
74335;SDS011;62755;-33.398;-70.572;2023-03-31T09:40:54;10.48;;;1.77;;
74335;SDS011;62755;-33.398;-70.572;2023-03-31T09:43:45;14.45;;;2.30;;
74335;SDS011;62755;-33.398;-70.572;2023-03-31T09:46:36;9.48;;;2.60;;
74335;SDS011;62755;-33.398;-70.572;2023-03-31T09:49:26;10.27;;;2.35;;
74335;SDS011;62755;-33.398;-70.572;2023-03-31T09:52:22;20.75;;;3.05;;
74335;SDS011;62755;-33.398;-70.572;2023-03-31T09:55:17;15.45;;;2.92;;
74335;SDS011;62755;-33.398;-70.572;2023-03-31T09:58:13;18.52;;;3.42;;
74335;SDS011;62755;-33.398;-70.572;2023-03-31T10:01:03;6.88;;;2.60;;
74335;SDS011;62755;-33.398;-70.572;2023-03-31T10:03:54;18.35;;;3.50;;
74335;SDS011;62755;-33.398;-70.572;2023-03-31T10:06:44;22.45;;;2.78;;
74335;SDS011;62755;-33.398;-70.572;2023-03-31T10:09:34;10.40;;;3.15;;
74335;SDS011;62755;-33.398;-70.572;2023-03-31T10:12:27;17.38;;;2.50;;
74335;SDS011;62755;-33.398;-70.572;2023-03-31T10:15:20;11.73;;;2.28;;
74335;SDS011;62755;-33.398;-70.572;2023-03-31T10:18:14;9.70;;;2.22;;
74335;SDS011;62755;-33.398;-70.572;2023-03-31T10:21:06;9.23;;;2.70;;
74335;SDS011;62755;-33.398;-70.572;2023-03-31T10:24:08;27.40;;;3.03;;
74335;SDS011;62755;-33.398;-70.572;2023-03-31T10:26:57;14.55;;;2.97;;
74335;SDS011;62755;-33.398;-70.572;2023-03-31T10:29:47;19.80;;;2.92;;
74335;SDS011;62755;-33.398;-70.572;2023-03-31T10:32:42;7.82;;;2.58;;
74335;SDS011;62755;-33.398;-70.572;2023-03-31T10:35:32;15.30;;;2.50;;
74335;SDS011;62755;-33.398;-70.572;2023-03-31T10:38:25;9.10;;;2.13;;
74335;SDS011;62755;-33.398;-70.572;2023-03-31T10:41:18;11.70;;;1.75;;
74335;SDS011;62755;-33.398;-70.572;2023-03-31T10:44:29;20.30;;;2.50;;
74335;SDS011;62755;-33.398;-70.572;2023-03-31T10:47:21;16.48;;;2.90;;
74335;SDS011;62755;-33.398;-70.572;2023-03-31T10:50:14;22.80;;;3.28;;
74335;SDS011;62755;-33.398;-70.572;2023-03-31T10:53:04;15.73;;;3.40;;
74335;SDS011;62755;-33.398;-70.572;2023-03-31T10:56:00;26.42;;;4.65;;
74335;SDS011;62755;-33.398;-70.572;2023-03-31T10:59:07;21.50;;;3.92;;
74335;SDS011;62755;-33.398;-70.572;2023-03-31T11:02:26;23.20;;;4.45;;
74335;SDS011;62755;-33.398;-70.572;2023-03-31T11:05:33;20.45;;;3.13;;
74335;SDS011;62755;-33.398;-70.572;2023-03-31T11:08:30;17.65;;;4.05;;
74335;SDS011;62755;-33.398;-70.572;2023-03-31T11:11:37;31.63;;;3.90;;
74335;SDS011;62755;-33.398;-70.572;2023-03-31T11:14:43;19.60;;;3.92;;
74335;SDS011;62755;-33.398;-70.572;2023-03-31T11:17:46;20.27;;;4.88;;
74335;SDS011;62755;-33.398;-70.572;2023-03-31T11:20:52;13.70;;;4.80;;
74335;SDS011;62755;-33.398;-70.572;2023-03-31T11:23:49;22.13;;;3.47;;
74335;SDS011;62755;-33.398;-70.572;2023-03-31T11:26:49;19.38;;;4.75;;
74335;SDS011;62755;-33.398;-70.572;2023-03-31T11:29:47;24.80;;;3.90;;
74335;SDS011;62755;-33.398;-70.572;2023-03-31T11:32:47;24.42;;;4.30;;
74335;SDS011;62755;-33.398;-70.572;2023-03-31T11:35:57;22.50;;;3.95;;
74335;SDS011;62755;-33.398;-70.572;2023-03-31T11:39:00;27.33;;;3.75;;
74335;SDS011;62755;-33.398;-70.572;2023-03-31T11:42:01;28.75;;;5.35;;
74335;SDS011;62755;-33.398;-70.572;2023-03-31T11:44:56;26.60;;;5.90;;
74335;SDS011;62755;-33.398;-70.572;2023-03-31T11:47:53;23.95;;;5.10;;
74335;SDS011;62755;-33.398;-70.572;2023-03-31T11:50:47;21.92;;;4.50;;
74335;SDS011;62755;-33.398;-70.572;2023-03-31T11:53:40;22.92;;;3.92;;
74335;SDS011;62755;-33.398;-70.572;2023-03-31T11:56:32;26.63;;;4.97;;
74335;SDS011;62755;-33.398;-70.572;2023-03-31T11:59:24;32.13;;;3.95;;
74335;SDS011;62755;-33.398;-70.572;2023-03-31T12:02:16;22.05;;;4.80;;
74335;SDS011;62755;-33.398;-70.572;2023-03-31T12:05:11;25.35;;;3.75;;
74335;SDS011;62755;-33.398;-70.572;2023-03-31T12:08:03;25.52;;;4.68;;
74335;SDS011;62755;-33.398;-70.572;2023-03-31T12:11:01;16.77;;;4.70;;
74335;SDS011;62755;-33.398;-70.572;2023-03-31T12:13:57;18.85;;;3.67;;
74335;SDS011;62755;-33.398;-70.572;2023-03-31T12:16:57;30.95;;;5.20;;
74335;SDS011;62755;-33.398;-70.572;2023-03-31T12:19:51;34.40;;;5.13;;
74335;SDS011;62755;-33.398;-70.572;2023-03-31T12:22:43;34.20;;;5.75;;
74335;SDS011;62755;-33.398;-70.572;2023-03-31T12:25:39;15.07;;;4.47;;
74335;SDS011;62755;-33.398;-70.572;2023-03-31T12:28:35;21.73;;;3.90;;
74335;SDS011;62755;-33.398;-70.572;2023-03-31T12:31:28;19.50;;;3.90;;
74335;SDS011;62755;-33.398;-70.572;2023-03-31T12:34:19;30.70;;;3.97;;
74335;SDS011;62755;-33.398;-70.572;2023-03-31T12:37:23;22.25;;;3.30;;
74335;SDS011;62755;-33.398;-70.572;2023-03-31T12:40:55;27.90;;;3.08;;
74335;SDS011;62755;-33.398;-70.572;2023-03-31T12:43:59;15.27;;;3.17;;
74335;SDS011;62755;-33.398;-70.572;2023-03-31T12:47:13;22.08;;;3.15;;
74335;SDS011;62755;-33.398;-70.572;2023-03-31T12:50:22;25.20;;;3.35;;
74335;SDS011;62755;-33.398;-70.572;2023-03-31T12:53:30;23.13;;;3.47;;
74335;SDS011;62755;-33.398;-70.572;2023-03-31T12:56:25;30.50;;;4.43;;
74335;SDS011;62755;-33.398;-70.572;2023-03-31T12:59:23;18.20;;;3.35;;
74335;SDS011;62755;-33.398;-70.572;2023-03-31T13:02:23;17.25;;;3.17;;
74335;SDS011;62755;-33.398;-70.572;2023-03-31T13:08:49;20.05;;;3.83;;
74335;SDS011;62755;-33.398;-70.572;2023-03-31T13:11:40;15.07;;;2.65;;
74335;SDS011;62755;-33.398;-70.572;2023-03-31T13:14:37;20.85;;;3.25;;
74335;SDS011;62755;-33.398;-70.572;2023-03-31T13:20:32;22.75;;;3.60;;
74335;SDS011;62755;-33.398;-70.572;2023-03-31T13:23:22;26.15;;;3.50;;
74335;SDS011;62755;-33.398;-70.572;2023-03-31T13:29:39;15.32;;;3.30;;
74335;SDS011;62755;-33.398;-70.572;2023-03-31T13:32:31;20.30;;;2.97;;
74335;SDS011;62755;-33.398;-70.572;2023-03-31T13:35:23;22.15;;;3.10;;
74335;SDS011;62755;-33.398;-70.572;2023-03-31T13:38:22;15.73;;;2.90;;
74335;SDS011;62755;-33.398;-70.572;2023-03-31T13:41:23;19.27;;;2.72;;
74335;SDS011;62755;-33.398;-70.572;2023-03-31T13:44:32;15.25;;;2.72;;
74335;SDS011;62755;-33.398;-70.572;2023-03-31T13:47:44;17.63;;;3.08;;
74335;SDS011;62755;-33.398;-70.572;2023-03-31T13:50:52;16.10;;;3.97;;
74335;SDS011;62755;-33.398;-70.572;2023-03-31T13:54:13;26.60;;;4.22;;
74335;SDS011;62755;-33.398;-70.572;2023-03-31T13:57:25;27.92;;;4.50;;
74335;SDS011;62755;-33.398;-70.572;2023-03-31T14:00:43;74.95;;;7.25;;
74335;SDS011;62755;-33.398;-70.572;2023-03-31T14:03:45;38.80;;;5.13;;
74335;SDS011;62755;-33.398;-70.572;2023-03-31T14:06:47;25.38;;;4.35;;
74335;SDS011;62755;-33.398;-70.572;2023-03-31T14:09:41;30.08;;;4.38;;
74335;SDS011;62755;-33.398;-70.572;2023-03-31T14:12:35;28.50;;;4.18;;
74335;SDS011;62755;-33.398;-70.572;2023-03-31T14:15:25;26.65;;;3.97;;
74335;SDS011;62755;-33.398;-70.572;2023-03-31T14:18:20;21.80;;;3.30;;
74335;SDS011;62755;-33.398;-70.572;2023-03-31T14:21:14;14.27;;;3.10;;
74335;SDS011;62755;-33.398;-70.572;2023-03-31T14:24:12;31.83;;;4.30;;
74335;SDS011;62755;-33.398;-70.572;2023-03-31T14:27:17;20.17;;;2.95;;
74335;SDS011;62755;-33.398;-70.572;2023-03-31T14:30:19;16.38;;;3.15;;
74335;SDS011;62755;-33.398;-70.572;2023-03-31T14:33:23;24.10;;;3.53;;
74335;SDS011;62755;-33.398;-70.572;2023-03-31T14:36:22;25.13;;;3.70;;
74335;SDS011;62755;-33.398;-70.572;2023-03-31T14:39:23;18.25;;;2.70;;
74335;SDS011;62755;-33.398;-70.572;2023-03-31T14:42:17;12.52;;;2.67;;
74335;SDS011;62755;-33.398;-70.572;2023-03-31T14:45:14;21.38;;;3.58;;
74335;SDS011;62755;-33.398;-70.572;2023-03-31T14:48:10;15.55;;;3.47;;
74335;SDS011;62755;-33.398;-70.572;2023-03-31T14:51:07;15.30;;;3.30;;
74335;SDS011;62755;-33.398;-70.572;2023-03-31T14:53:57;21.13;;;3.40;;
74335;SDS011;62755;-33.398;-70.572;2023-03-31T14:56:48;15.35;;;3.88;;
74335;SDS011;62755;-33.398;-70.572;2023-03-31T14:59:41;20.15;;;4.13;;
74335;SDS011;62755;-33.398;-70.572;2023-03-31T15:02:32;21.50;;;3.75;;
74335;SDS011;62755;-33.398;-70.572;2023-03-31T15:05:24;32.58;;;4.13;;
74335;SDS011;62755;-33.398;-70.572;2023-03-31T15:08:19;28.00;;;5.00;;
74335;SDS011;62755;-33.398;-70.572;2023-03-31T15:11:12;25.63;;;6.10;;
74335;SDS011;62755;-33.398;-70.572;2023-03-31T15:14:05;33.03;;;7.15;;
74335;SDS011;62755;-33.398;-70.572;2023-03-31T15:16:57;30.30;;;8.18;;
74335;SDS011;62755;-33.398;-70.572;2023-03-31T15:19:51;27.13;;;7.45;;
74335;SDS011;62755;-33.398;-70.572;2023-03-31T15:22:42;28.38;;;8.25;;
74335;SDS011;62755;-33.398;-70.572;2023-03-31T15:25:34;20.63;;;8.43;;
74335;SDS011;62755;-33.398;-70.572;2023-03-31T15:28:28;37.13;;;11.02;;
74335;SDS011;62755;-33.398;-70.572;2023-03-31T15:31:23;33.75;;;10.05;;
74335;SDS011;62755;-33.398;-70.572;2023-03-31T15:34:18;31.60;;;9.02;;
74335;SDS011;62755;-33.398;-70.572;2023-03-31T15:37:11;29.88;;;9.57;;
74335;SDS011;62755;-33.398;-70.572;2023-03-31T15:40:01;28.02;;;9.13;;
74335;SDS011;62755;-33.398;-70.572;2023-03-31T15:43:02;30.10;;;8.77;;
74335;SDS011;62755;-33.398;-70.572;2023-03-31T15:45:53;35.00;;;8.63;;
74335;SDS011;62755;-33.398;-70.572;2023-03-31T15:48:48;21.48;;;9.05;;
74335;SDS011;62755;-33.398;-70.572;2023-03-31T15:51:39;23.20;;;9.95;;
74335;SDS011;62755;-33.398;-70.572;2023-03-31T15:54:30;22.35;;;9.05;;
74335;SDS011;62755;-33.398;-70.572;2023-03-31T15:57:29;28.80;;;10.73;;
74335;SDS011;62755;-33.398;-70.572;2023-03-31T16:03:33;32.65;;;11.00;;
74335;SDS011;62755;-33.398;-70.572;2023-03-31T16:06:33;23.75;;;9.55;;
74335;SDS011;62755;-33.398;-70.572;2023-03-31T16:09:37;25.40;;;11.50;;
74335;SDS011;62755;-33.398;-70.572;2023-03-31T16:12:31;41.05;;;11.50;;
74335;SDS011;62755;-33.398;-70.572;2023-03-31T16:15:28;36.88;;;10.40;;
74335;SDS011;62755;-33.398;-70.572;2023-03-31T16:18:23;36.15;;;10.98;;
74335;SDS011;62755;-33.398;-70.572;2023-03-31T16:21:19;34.63;;;8.98;;
74335;SDS011;62755;-33.398;-70.572;2023-03-31T16:24:12;39.80;;;9.23;;
74335;SDS011;62755;-33.398;-70.572;2023-03-31T16:27:03;32.50;;;9.00;;
74335;SDS011;62755;-33.398;-70.572;2023-03-31T16:30:04;26.00;;;9.77;;
74335;SDS011;62755;-33.398;-70.572;2023-03-31T16:32:59;29.42;;;9.20;;
74335;SDS011;62755;-33.398;-70.572;2023-03-31T16:35:53;31.67;;;8.75;;
74335;SDS011;62755;-33.398;-70.572;2023-03-31T16:38:43;28.30;;;11.40;;
74335;SDS011;62755;-33.398;-70.572;2023-03-31T16:41:33;28.45;;;12.55;;
74335;SDS011;62755;-33.398;-70.572;2023-03-31T16:44:25;34.63;;;9.65;;
74335;SDS011;62755;-33.398;-70.572;2023-03-31T16:47:15;27.13;;;6.95;;
74335;SDS011;62755;-33.398;-70.572;2023-03-31T16:50:04;32.83;;;6.45;;
74335;SDS011;62755;-33.398;-70.572;2023-03-31T16:52:56;32.13;;;8.57;;
74335;SDS011;62755;-33.398;-70.572;2023-03-31T16:55:45;24.95;;;10.00;;
74335;SDS011;62755;-33.398;-70.572;2023-03-31T16:58:35;32.08;;;12.65;;
74335;SDS011;62755;-33.398;-70.572;2023-03-31T17:01:25;41.70;;;14.70;;
74335;SDS011;62755;-33.398;-70.572;2023-03-31T17:04:15;45.55;;;14.40;;